Time;durP1;ratioP1;P1;durP2;ratioP2;P2;SDS_P1;SDS_P2;PMS_P1;PMS_P2;Temp;Humidity;BMP_temperature;BMP_pressure;BME280_temperature;BME280_humidity;BME280_pressure;Samples;Min_cycle;Max_cycle;Signal;HPM_P1;HPM_P2
2023/05/07 00:02:07;;;;;;;0.50;0.50;;;18.30;62.50;;;;;;4867759;29;20197;-74
2023/05/07 00:04:37;;;;;;;1.00;0.70;;;18.20;62.70;;;;;;4872073;29;20205;-74
2023/05/07 00:07:06;;;;;;;2.50;1.33;;;18.20;63.00;;;;;;4873284;29;20205;-74
2023/05/07 00:09:34;;;;;;;1.50;0.87;;;18.20;62.90;;;;;;4874091;29;20261;-74
2023/05/07 00:12:03;;;;;;;0.40;0.40;;;18.10;62.90;;;;;;4871694;29;20253;-74
2023/05/07 00:14:31;;;;;;;0.33;0.33;;;18.00;62.80;;;;;;4868409;29;20361;-74
2023/05/07 00:17:01;;;;;;;0.20;0.20;;;18.00;62.80;;;;;;4872474;29;20200;-74
2023/05/07 00:19:29;;;;;;;0.20;0.20;;;17.90;62.90;;;;;;4873767;29;20612;-74
2023/05/07 00:21:58;;;;;;;0.23;0.23;;;17.90;63.00;;;;;;4873934;29;20201;-77
2023/05/07 00:24:26;;;;;;;1.17;0.70;;;17.80;63.20;;;;;;4874480;29;20193;-74
2023/05/07 00:26:54;;;;;;;1.50;0.87;;;17.80;63.30;;;;;;4874308;29;20202;-74
2023/05/07 00:29:23;;;;;;;0.93;0.70;;;17.70;63.10;;;;;;4876141;29;20242;-74
2023/05/07 00:31:51;;;;;;;0.40;0.40;;;17.70;63.30;;;;;;4867361;29;20190;-74
2023/05/07 00:34:22;;;;;;;0.93;0.60;;;17.60;63.30;;;;;;4877597;29;20316;-74
2023/05/07 00:36:50;;;;;;;0.30;0.30;;;17.60;63.30;;;;;;4872634;29;20697;-76
2023/05/07 00:39:18;;;;;;;2.13;0.50;;;17.50;63.30;;;;;;4872473;29;20252;-74
2023/05/07 00:41:47;;;;;;;2.27;0.30;;;17.50;63.40;;;;;;4873816;29;20356;-74
2023/05/07 00:44:15;;;;;;;0.43;0.27;;;17.40;63.50;;;;;;4874985;29;20208;-74
2023/05/07 00:46:44;;;;;;;0.53;0.33;;;17.40;63.60;;;;;;4872927;29;20303;-75
2023/05/07 00:49:13;;;;;;;0.70;0.50;;;17.40;64.20;;;;;;4872295;29;20260;-74
2023/05/07 00:51:43;;;;;;;0.33;0.33;;;17.30;64.30;;;;;;4867314;29;20241;-74
2023/05/07 00:54:11;;;;;;;0.30;0.30;;;17.20;64.70;;;;;;4875686;29;20348;-74
2023/05/07 00:56:40;;;;;;;1.63;0.60;;;17.20;64.60;;;;;;4875633;29;20257;-74
2023/05/07 00:59:09;;;;;;;1.07;0.73;;;17.10;64.60;;;;;;4876984;29;20257;-75
2023/05/07 01:01:37;;;;;;;0.40;0.30;;;17.10;64.70;;;;;;4871154;29;20201;-74
2023/05/07 01:04:05;;;;;;;0.87;0.50;;;17.00;64.90;;;;;;4871910;29;20212;-74
2023/05/07 01:06:34;;;;;;;0.53;0.53;;;17.00;65.70;;;;;;4872178;29;20370;-76
2023/05/07 01:09:05;;;;;;;0.50;0.30;;;16.90;65.60;;;;;;4875019;29;20600;-76
2023/05/07 01:11:34;;;;;;;0.50;0.50;;;16.90;65.50;;;;;;4873982;29;20308;-76
2023/05/07 01:14:03;;;;;;;0.37;0.37;;;16.80;65.60;;;;;;4878354;29;20307;-74
2023/05/07 01:16:32;;;;;;;0.30;0.30;;;16.80;65.50;;;;;;4873006;29;20222;-75
2023/05/07 01:19:01;;;;;;;0.30;0.30;;;16.70;65.80;;;;;;4874157;29;20201;-74
2023/05/07 01:21:34;;;;;;;0.20;0.20;;;16.70;65.90;;;;;;4872325;29;20327;-76
2023/05/07 01:24:04;;;;;;;0.30;0.30;;;16.70;65.90;;;;;;4873038;29;20207;-74
2023/05/07 01:26:33;;;;;;;3.70;0.57;;;16.60;66.00;;;;;;4877175;29;20245;-74
2023/05/07 01:29:01;;;;;;;0.60;0.50;;;16.60;66.20;;;;;;4877161;29;20606;-74
2023/05/07 01:31:30;;;;;;;3.33;0.97;;;16.60;66.10;;;;;;4874239;29;20265;-75
2023/05/07 01:34:00;;;;;;;0.57;0.57;;;16.50;66.60;;;;;;4871957;29;20236;-74
2023/05/07 01:36:30;;;;;;;1.90;0.90;;;16.50;66.50;;;;;;4871537;29;20201;-75
2023/05/07 01:39:00;;;;;;;0.30;0.30;;;16.50;66.80;;;;;;4873394;29;20289;-74
2023/05/07 01:41:29;;;;;;;0.27;0.23;;;16.40;66.70;;;;;;4871584;29;20236;-74
2023/05/07 01:43:59;;;;;;;0.57;0.57;;;16.40;66.80;;;;;;4870557;29;20324;-74
2023/05/07 01:46:28;;;;;;;0.20;0.20;;;16.40;66.90;;;;;;4874507;29;20245;-75
2023/05/07 01:48:56;;;;;;;0.57;0.57;;;16.30;66.70;;;;;;4871973;29;20265;-74
2023/05/07 01:51:26;;;;;;;1.50;1.07;;;16.30;67.10;;;;;;4871116;29;20197;-74
2023/05/07 01:53:54;;;;;;;0.50;0.50;;;16.30;67.10;;;;;;4872674;29;20204;-74
2023/05/07 01:56:23;;;;;;;0.40;0.40;;;16.20;67.10;;;;;;4873016;29;20197;-74
2023/05/07 01:58:53;;;;;;;0.50;0.43;;;16.20;67.10;;;;;;4872766;29;20237;-74
2023/05/07 02:01:21;;;;;;;0.57;0.40;;;16.20;67.30;;;;;;4868292;29;20681;-74
2023/05/07 02:03:50;;;;;;;1.13;1.03;;;16.10;67.30;;;;;;4876219;29;20199;-74
2023/05/07 02:06:19;;;;;;;0.93;0.70;;;16.10;67.50;;;;;;4872362;29;20291;-75
2023/05/07 02:08:48;;;;;;;0.60;0.50;;;16.10;67.60;;;;;;4873041;29;20733;-76
2023/05/07 02:11:16;;;;;;;0.97;0.53;;;16.10;67.60;;;;;;4867864;29;20265;-74
2023/05/07 02:13:44;;;;;;;1.10;0.83;;;16.10;67.70;;;;;;4873242;29;20198;-74
2023/05/07 02:16:14;;;;;;;0.80;0.80;;;16.00;67.70;;;;;;4865063;29;20197;-74
2023/05/07 02:18:42;;;;;;;1.67;0.53;;;16.00;67.70;;;;;;4876870;29;20555;-74
2023/05/07 02:21:11;;;;;;;3.97;0.90;;;16.00;68.30;;;;;;4873056;29;20284;-74
2023/05/07 02:23:39;;;;;;;1.10;1.03;;;15.90;70.00;;;;;;4876859;29;20565;-75
2023/05/07 02:26:08;;;;;;;0.67;0.67;;;15.90;69.90;;;;;;4870314;29;20259;-75
2023/05/07 02:28:36;;;;;;;1.13;1.03;;;15.80;70.00;;;;;;4871636;29;20241;-74
2023/05/07 02:31:05;;;;;;;1.20;0.63;;;15.80;70.50;;;;;;4872585;29;20197;-74
2023/05/07 02:33:36;;;;;;;0.97;0.80;;;15.70;71.60;;;;;;4872734;29;20208;-77
2023/05/07 02:36:09;;;;;;;0.60;0.60;;;15.70;71.20;;;;;;4870073;29;20224;-76
2023/05/07 02:38:37;;;;;;;3.03;0.80;;;15.70;71.00;;;;;;4873988;29;20256;-74
2023/05/07 02:41:06;;;;;;;1.27;0.57;;;15.70;71.10;;;;;;4870234;29;20646;-73
2023/05/07 02:43:34;;;;;;;2.33;0.90;;;15.60;71.10;;;;;;4875051;29;20201;-74
2023/05/07 02:46:03;;;;;;;0.37;0.37;;;15.60;71.30;;;;;;4866252;29;20263;-74
2023/05/07 02:48:34;;;;;;;0.87;0.63;;;15.60;71.10;;;;;;4871688;29;20291;-74
2023/05/07 02:51:03;;;;;;;1.63;0.83;;;15.50;71.40;;;;;;4872704;29;20194;-75
2023/05/07 02:53:31;;;;;;;0.90;0.83;;;15.50;71.60;;;;;;4873576;29;20604;-73
2023/05/07 02:56:00;;;;;;;1.00;0.87;;;15.50;72.20;;;;;;4873397;29;20225;-74
2023/05/07 02:58:29;;;;;;;1.03;0.50;;;15.50;72.00;;;;;;4867768;29;20722;-74
2023/05/07 03:00:57;;;;;;;0.53;0.53;;;15.50;71.60;;;;;;4867184;29;20623;-74
2023/05/07 03:03:26;;;;;;;2.90;1.17;;;15.40;71.40;;;;;;4865482;29;20547;-74
2023/05/07 03:05:55;;;;;;;0.80;0.80;;;15.40;71.30;;;;;;4872508;29;20635;-73
2023/05/07 03:08:23;;;;;;;1.70;0.97;;;15.40;71.30;;;;;;4872561;29;20231;-74
2023/05/07 03:10:52;;;;;;;1.37;1.00;;;15.40;71.40;;;;;;4868452;29;20225;-75
2023/05/07 03:13:21;;;;;;;1.07;0.83;;;15.40;71.60;;;;;;4873628;29;20352;-74
2023/05/07 03:15:49;;;;;;;0.53;0.40;;;15.40;71.60;;;;;;4868670;29;20639;-74
2023/05/07 03:18:17;;;;;;;0.47;0.47;;;15.40;71.70;;;;;;4871526;29;20211;-75
2023/05/07 03:20:46;;;;;;;0.60;0.37;;;15.30;72.20;;;;;;4871378;29;20201;-74
2023/05/07 03:23:16;;;;;;;0.30;0.30;;;15.30;72.00;;;;;;4870339;29;20197;-74
2023/05/07 03:25:44;;;;;;;0.30;0.30;;;15.30;72.00;;;;;;4872116;29;21557;-74
2023/05/07 03:28:13;;;;;;;0.83;0.40;;;15.30;71.90;;;;;;4872719;29;20683;-74
2023/05/07 03:30:41;;;;;;;0.90;0.87;;;15.30;71.90;;;;;;4866532;29;20650;-74
2023/05/07 03:33:09;;;;;;;0.70;0.60;;;15.30;71.90;;;;;;4874075;29;20258;-74
2023/05/07 03:35:37;;;;;;;2.23;0.63;;;15.30;71.90;;;;;;4872816;29;20273;-75
2023/05/07 03:38:07;;;;;;;2.00;1.00;;;15.30;72.10;;;;;;4868338;29;20225;-75
2023/05/07 03:40:37;;;;;;;0.20;0.20;;;15.40;71.90;;;;;;4871845;29;20372;-74
2023/05/07 03:43:05;;;;;;;2.20;1.63;;;15.40;72.10;;;;;;4868151;29;20220;-76
2023/05/07 03:45:33;;;;;;;0.50;0.50;;;15.40;72.30;;;;;;4871136;29;20196;-74
2023/05/07 03:48:02;;;;;;;0.73;0.67;;;15.40;72.30;;;;;;4876052;29;21038;-74
2023/05/07 03:50:30;;;;;;;2.67;0.63;;;15.40;72.40;;;;;;4869318;29;20205;-74
2023/05/07 03:52:58;;;;;;;0.30;0.30;;;15.40;72.50;;;;;;4873926;29;20557;-75
2023/05/07 03:55:27;;;;;;;0.37;0.37;;;15.40;72.50;;;;;;4874759;29;20221;-75
2023/05/07 03:57:57;;;;;;;0.77;0.73;;;15.40;72.50;;;;;;4879481;29;20946;-74
2023/05/07 04:00:25;;;;;;;0.50;0.50;;;15.50;72.50;;;;;;4870574;29;20253;-76
2023/05/07 04:02:53;;;;;;;0.53;0.53;;;15.50;72.90;;;;;;4868094;29;20274;-74
2023/05/07 04:05:22;;;;;;;0.20;0.20;;;15.50;73.00;;;;;;4872961;29;20670;-75
2023/05/07 04:07:50;;;;;;;1.43;1.07;;;15.50;72.70;;;;;;4878880;29;20205;-75
2023/05/07 04:10:18;;;;;;;1.63;1.53;;;15.60;72.80;;;;;;4873690;29;20226;-75
2023/05/07 04:12:47;;;;;;;0.67;0.30;;;15.60;73.00;;;;;;4870286;29;20639;-75
2023/05/07 04:15:17;;;;;;;1.40;1.03;;;15.60;72.90;;;;;;4869265;29;20222;-74
2023/05/07 04:17:45;;;;;;;0.33;0.33;;;15.60;72.90;;;;;;4869591;29;20942;-74
2023/05/07 04:20:16;;;;;;;0.77;0.50;;;15.70;72.80;;;;;;4874368;29;20197;-75
2023/05/07 04:22:44;;;;;;;0.53;0.53;;;15.70;72.70;;;;;;4878845;29;20202;-75
2023/05/07 04:25:13;;;;;;;0.70;0.70;;;15.70;72.70;;;;;;4870705;29;20939;-74
2023/05/07 04:27:41;;;;;;;0.87;0.60;;;15.80;72.70;;;;;;4874419;29;20202;-75
2023/05/07 04:30:11;;;;;;;2.33;1.00;;;15.80;72.80;;;;;;4876777;29;20284;-74
2023/05/07 04:32:41;;;;;;;1.57;1.43;;;15.80;72.80;;;;;;4871512;29;20916;-76
2023/05/07 04:35:10;;;;;;;3.07;0.90;;;15.80;72.90;;;;;;4869416;29;20213;-75
2023/05/07 04:37:38;;;;;;;1.47;0.90;;;15.80;72.90;;;;;;4869161;29;20301;-76
2023/05/07 04:40:10;;;;;;;1.10;1.00;;;15.90;73.00;;;;;;4871018;29;20269;-74
2023/05/07 04:42:39;;;;;;;3.30;1.43;;;15.90;72.90;;;;;;4871137;29;20223;-76
2023/05/07 04:45:12;;;;;;;1.00;0.90;;;16.00;72.80;;;;;;4862389;29;20574;-75
2023/05/07 04:47:42;;;;;;;1.03;0.97;;;16.00;72.70;;;;;;4867045;29;20201;-74
2023/05/07 04:50:11;;;;;;;1.10;1.00;;;16.00;72.60;;;;;;4870425;29;20653;-76
2023/05/07 04:52:43;;;;;;;0.98;0.60;;;16.10;72.60;;;;;;4863349;29;20921;-75
2023/05/07 04:55:12;;;;;;;1.23;0.80;;;16.10;72.70;;;;;;4866302;29;20233;-74
2023/05/07 04:57:41;;;;;;;0.60;0.60;;;16.20;73.40;;;;;;4876651;29;20224;-75
2023/05/07 05:00:10;;;;;;;3.70;1.17;;;16.20;72.80;;;;;;4869657;29;20276;-78
2023/05/07 05:02:43;;;;;;;1.63;0.80;;;16.30;72.50;;;;;;4872384;29;20211;-76
2023/05/07 05:05:12;;;;;;;3.07;1.30;;;16.40;72.30;;;;;;4869431;29;20202;-75
2023/05/07 05:07:43;;;;;;;0.87;0.60;;;16.40;72.20;;;;;;4876821;29;20313;-77
2023/05/07 05:10:18;;;;;;;0.40;0.40;;;16.40;72.10;;;;;;4875183;29;20269;-75
2023/05/07 05:12:50;;;;;;;2.20;0.97;;;16.50;71.90;;;;;;4876262;29;20193;-78
2023/05/07 05:15:19;;;;;;;0.80;0.80;;;16.60;71.50;;;;;;4877906;29;20189;-76
2023/05/07 05:17:49;;;;;;;0.83;0.67;;;16.70;71.40;;;;;;4881689;29;20225;-76
2023/05/07 05:20:17;;;;;;;14.50;0.80;;;16.70;71.20;;;;;;4878823;29;20948;-75
2023/05/07 05:22:46;;;;;;;0.50;0.50;;;16.80;70.50;;;;;;4878452;29;20198;-76
2023/05/07 05:25:14;;;;;;;3.13;1.03;;;16.80;69.90;;;;;;4877469;29;20273;-77
2023/05/07 05:27:43;;;;;;;0.50;0.40;;;16.90;69.60;;;;;;4870610;29;20931;-76
2023/05/07 05:30:12;;;;;;;0.33;0.33;;;17.00;69.60;;;;;;4869632;29;20193;-76
2023/05/07 05:32:41;;;;;;;1.23;0.60;;;17.10;69.00;;;;;;4868090;29;20651;-76
2023/05/07 05:35:14;;;;;;;0.60;0.60;;;17.10;68.50;;;;;;4872648;29;20198;-76
2023/05/07 05:37:42;;;;;;;0.57;0.57;;;17.10;68.50;;;;;;4876552;29;20243;-76
2023/05/07 05:40:12;;;;;;;1.33;0.67;;;17.20;68.70;;;;;;4866038;29;20206;-75
2023/05/07 05:42:40;;;;;;;0.43;0.43;;;17.30;68.80;;;;;;4869352;29;20197;-76
2023/05/07 05:45:10;;;;;;;0.90;0.57;;;17.30;68.50;;;;;;4874539;29;20551;-76
2023/05/07 05:47:39;;;;;;;0.40;0.40;;;17.40;68.50;;;;;;4874539;29;20264;-75
2023/05/07 05:50:09;;;;;;;0.40;0.40;;;17.50;68.30;;;;;;4873490;29;20201;-76
2023/05/07 05:52:40;;;;;;;0.43;0.40;;;17.60;68.00;;;;;;4877088;29;20204;-76
2023/05/07 05:55:09;;;;;;;1.60;0.50;;;17.70;67.80;;;;;;4872375;29;20316;-76
2023/05/07 05:57:38;;;;;;;0.33;0.33;;;17.70;67.50;;;;;;4881519;29;20315;-74
2023/05/07 06:00:07;;;;;;;0.67;0.60;;;17.80;66.00;;;;;;4867769;29;20616;-73
2023/05/07 06:02:36;;;;;;;0.43;0.43;;;17.90;66.70;;;;;;4868008;29;20208;-74
2023/05/07 06:05:06;;;;;;;1.17;0.50;;;18.00;66.60;;;;;;4875595;29;20203;-74
2023/05/07 06:07:34;;;;;;;0.50;0.50;;;18.00;66.30;;;;;;4872816;29;20312;-74
2023/05/07 06:10:05;;;;;;;0.47;0.47;;;18.10;66.40;;;;;;4868299;29;20715;-74
2023/05/07 06:12:33;;;;;;;0.47;0.30;;;18.20;66.50;;;;;;4866957;29;20823;-74
2023/05/07 06:15:02;;;;;;;1.60;0.93;;;18.30;66.50;;;;;;4869386;29;20197;-74
2023/05/07 06:17:30;;;;;;;0.50;0.50;;;18.30;66.00;;;;;;4863752;29;20320;-75
2023/05/07 06:19:59;;;;;;;0.50;0.40;;;18.40;65.90;;;;;;4868736;29;20208;-76
2023/05/07 06:22:27;;;;;;;0.33;0.33;;;18.50;64.90;;;;;;4868667;29;20205;-75
2023/05/07 06:24:55;;;;;;;0.70;0.60;;;18.60;65.20;;;;;;4865270;29;20220;-74
2023/05/07 06:27:25;;;;;;;0.57;0.40;;;18.70;65.10;;;;;;4872885;29;20742;-75
2023/05/07 06:29:53;;;;;;;1.00;0.73;;;18.80;65.20;;;;;;4877551;29;20627;-76
2023/05/07 06:32:24;;;;;;;1.10;0.83;;;18.80;64.60;;;;;;4873214;29;20237;-73
2023/05/07 06:34:55;;;;;;;2.13;0.60;;;18.90;64.50;;;;;;4872585;29;20573;-74
2023/05/07 06:37:23;;;;;;;0.83;0.70;;;18.90;64.10;;;;;;4876506;29;20228;-74
2023/05/07 06:39:52;;;;;;;1.70;1.20;;;19.10;63.90;;;;;;4871629;29;20253;-73
2023/05/07 06:42:20;;;;;;;0.97;0.83;;;19.10;63.50;;;;;;4869675;29;20273;-73
2023/05/07 06:44:52;;;;;;;0.60;0.60;;;19.20;63.40;;;;;;4873891;29;20233;-73
2023/05/07 06:47:20;;;;;;;0.33;0.33;;;19.20;63.50;;;;;;4870552;29;21091;-72
2023/05/07 06:49:49;;;;;;;0.57;0.40;;;19.30;63.20;;;;;;4873169;29;20193;-74
2023/05/07 06:52:17;;;;;;;0.57;0.57;;;19.40;63.00;;;;;;4868414;29;20272;-73
2023/05/07 06:54:45;;;;;;;0.27;0.27;;;19.50;63.20;;;;;;4870770;29;20201;-75
2023/05/07 06:57:14;;;;;;;0.93;0.50;;;19.60;63.00;;;;;;4869348;29;20702;-73
2023/05/07 06:59:42;;;;;;;0.43;0.40;;;19.60;62.30;;;;;;4868825;29;20264;-74
2023/05/07 07:02:12;;;;;;;2.83;0.73;;;19.70;62.20;;;;;;4864670;29;20193;-74
2023/05/07 07:04:41;;;;;;;0.30;0.30;;;19.80;62.20;;;;;;4873013;29;20292;-74
2023/05/07 07:07:10;;;;;;;0.77;0.63;;;19.90;62.10;;;;;;4869840;29;20212;-76
2023/05/07 07:09:38;;;;;;;0.53;0.50;;;19.90;61.70;;;;;;4865468;29;20599;-74
2023/05/07 07:12:06;;;;;;;0.50;0.50;;;20.00;59.80;;;;;;4873055;29;20650;-74
2023/05/07 07:14:35;;;;;;;0.55;0.50;;;20.00;59.70;;;;;;4873540;29;20453;-74
2023/05/07 07:17:04;;;;;;;0.45;0.45;;;20.10;59.30;;;;;;4869443;29;20221;-76
2023/05/07 07:19:34;;;;;;;4.07;1.60;;;20.10;59.10;;;;;;4869370;29;20755;-72
2023/05/07 07:22:02;;;;;;;0.30;0.30;;;20.10;58.10;;;;;;4868977;29;20200;-73
2023/05/07 07:24:31;;;;;;;0.37;0.37;;;20.20;57.60;;;;;;4870428;29;20227;-73
2023/05/07 07:26:59;;;;;;;0.40;0.38;;;20.30;58.10;;;;;;4863140;29;20300;-72
2023/05/07 07:29:27;;;;;;;0.85;0.63;;;20.30;58.10;;;;;;4869688;29;20280;-73
2023/05/07 07:31:56;;;;;;;1.50;0.30;;;20.40;59.00;;;;;;4869782;29;20253;-73
2023/05/07 07:34:24;;;;;;;0.20;0.20;;;20.50;58.10;;;;;;4867334;29;20201;-73
2023/05/07 07:36:54;;;;;;;0.80;0.27;;;20.50;57.20;;;;;;4865822;29;20193;-72
2023/05/07 07:39:22;;;;;;;1.00;0.30;;;20.50;57.30;;;;;;4873280;29;20216;-72
2023/05/07 07:41:50;;;;;;;0.20;0.20;;;20.60;57.40;;;;;;4867656;29;20229;-74
2023/05/07 07:44:19;;;;;;;5.13;0.45;;;20.60;57.70;;;;;;4871077;29;20232;-72
2023/05/07 07:46:47;;;;;;;0.37;0.37;;;20.60;57.70;;;;;;4873292;29;20293;-72
2023/05/07 07:49:15;;;;;;;0.50;0.50;;;20.70;57.80;;;;;;4871916;29;20193;-74
2023/05/07 07:51:44;;;;;;;10.57;1.00;;;20.80;58.00;;;;;;4868910;29;20280;-72
2023/05/07 07:54:14;;;;;;;0.28;0.28;;;20.80;58.10;;;;;;4874986;29;20295;-72
2023/05/07 07:56:42;;;;;;;0.30;0.30;;;20.90;57.90;;;;;;4873354;29;20573;-72
2023/05/07 07:59:10;;;;;;;0.50;0.40;;;20.90;57.50;;;;;;4869352;29;20224;-71
2023/05/07 08:01:39;;;;;;;0.35;0.35;;;21.00;57.40;;;;;;4870047;29;20305;-74
2023/05/07 08:04:07;;;;;;;0.50;0.50;;;21.00;57.40;;;;;;4874338;29;20205;-73
2023/05/07 08:06:36;;;;;;;0.40;0.30;;;21.10;57.70;;;;;;4869149;29;20237;-75
2023/05/07 08:09:04;;;;;;;0.25;0.25;;;21.10;57.20;;;;;;4870476;29;20209;-72
2023/05/07 08:11:35;;;;;;;2.47;0.50;;;21.10;57.10;;;;;;4839567;29;20193;-71
2023/05/07 08:14:03;;;;;;;0.47;0.40;;;21.00;57.20;;;;;;4871373;29;20625;-71
2023/05/07 08:16:32;;;;;;;0.88;0.38;;;21.10;57.60;;;;;;4863332;29;20246;-71
2023/05/07 08:19:00;;;;;;;0.30;0.30;;;21.10;57.50;;;;;;4873614;29;20224;-73
2023/05/07 08:21:28;;;;;;;0.68;0.57;;;21.20;57.80;;;;;;4871803;29;20292;-72
2023/05/07 08:23:58;;;;;;;0.77;0.63;;;21.20;57.80;;;;;;4872266;29;20701;-72
2023/05/07 08:26:26;;;;;;;4.13;1.10;;;21.20;57.50;;;;;;4862447;29;20202;-71
2023/05/07 08:28:56;;;;;;;0.40;0.30;;;21.20;57.20;;;;;;4872031;29;20681;-73
2023/05/07 08:31:24;;;;;;;1.38;0.60;;;21.10;56.90;;;;;;4872768;29;20257;-76
2023/05/07 08:33:53;;;;;;;0.52;0.43;;;21.20;57.20;;;;;;4867751;29;20197;-75
2023/05/07 08:36:24;;;;;;;1.25;0.85;;;21.20;57.30;;;;;;4862624;29;20226;-73
2023/05/07 08:38:52;;;;;;;1.45;0.75;;;21.20;57.30;;;;;;4878230;29;20241;-72
2023/05/07 08:41:21;;;;;;;0.60;0.60;;;21.30;57.30;;;;;;4873503;29;20194;-72
2023/05/07 08:43:50;;;;;;;1.20;0.68;;;21.30;57.60;;;;;;4874621;29;20261;-73
2023/05/07 08:46:22;;;;;;;0.52;0.30;;;21.40;57.80;;;;;;4876133;29;20205;-72
2023/05/07 08:48:50;;;;;;;0.38;0.38;;;21.50;57.90;;;;;;4870835;29;20621;-74
2023/05/07 08:51:20;;;;;;;0.80;0.70;;;21.50;58.00;;;;;;4872178;29;20264;-73
2023/05/07 08:53:50;;;;;;;0.75;0.70;;;21.50;57.90;;;;;;4876442;29;20201;-73
2023/05/07 08:56:20;;;;;;;0.60;0.40;;;21.50;56.70;;;;;;4874689;29;20268;-74
2023/05/07 08:58:49;;;;;;;0.70;0.70;;;21.50;56.50;;;;;;4869918;29;20213;-74
2023/05/07 09:01:19;;;;;;;0.73;0.60;;;21.60;56.90;;;;;;4872210;29;20232;-74
2023/05/07 09:03:48;;;;;;;0.70;0.50;;;21.60;57.30;;;;;;4862704;29;20635;-74
2023/05/07 09:06:17;;;;;;;0.30;0.30;;;21.70;57.60;;;;;;4877687;29;20623;-73
2023/05/07 09:08:50;;;;;;;1.65;0.57;;;21.70;57.60;;;;;;4880145;29;20201;-74
2023/05/07 09:11:22;;;;;;;0.98;0.38;;;21.80;57.70;;;;;;4869236;29;20629;-73
2023/05/07 09:13:54;;;;;;;0.40;0.40;;;21.80;57.80;;;;;;4872865;29;20205;-75
2023/05/07 09:16:24;;;;;;;1.00;0.40;;;21.90;57.20;;;;;;4870069;29;20201;-74
2023/05/07 09:18:55;;;;;;;0.70;0.40;;;21.90;56.60;;;;;;4866953;29;20221;-74
2023/05/07 09:21:23;;;;;;;0.40;0.40;;;21.90;56.00;;;;;;4862899;29;20205;-75
2023/05/07 09:23:53;;;;;;;0.63;0.63;;;21.90;56.00;;;;;;4865022;29;20654;-73
2023/05/07 09:26:23;;;;;;;0.98;0.60;;;21.90;55.50;;;;;;4869574;29;20208;-75
2023/05/07 09:28:52;;;;;;;10.88;1.15;;;22.00;55.50;;;;;;4873313;29;20232;-75
2023/05/07 09:31:23;;;;;;;0.50;0.43;;;22.00;55.70;;;;;;4871375;29;20201;-76
2023/05/07 09:33:55;;;;;;;2.00;1.13;;;22.00;55.60;;;;;;4870330;29;20228;-75
2023/05/07 09:36:24;;;;;;;11.93;0.80;;;22.00;54.60;;;;;;4866327;29;20208;-75
2023/05/07 09:38:52;;;;;;;1.60;0.63;;;22.10;55.30;;;;;;4869147;29;20233;-75
2023/05/07 09:41:20;;;;;;;2.42;1.15;;;22.10;55.10;;;;;;4870759;29;20236;-77
2023/05/07 09:43:55;;;;;;;1.08;1.00;;;22.10;54.70;;;;;;4872769;29;20690;-76
2023/05/07 09:46:29;;;;;;;0.50;0.32;;;22.10;55.00;;;;;;4866099;29;20189;-76
2023/05/07 09:49:02;;;;;;;0.60;0.47;;;22.20;55.40;;;;;;4874612;29;20244;-75
2023/05/07 09:51:35;;;;;;;0.73;0.65;;;22.20;54.90;;;;;;4873932;29;20611;-76
2023/05/07 09:54:06;;;;;;;1.40;1.08;;;22.20;55.30;;;;;;4876771;29;20248;-75
2023/05/07 09:56:35;;;;;;;0.68;0.60;;;22.30;55.00;;;;;;4874249;29;20235;-77
2023/05/07 09:59:05;;;;;;;1.30;0.88;;;22.20;55.20;;;;;;4878053;29;20221;-77
2023/05/07 10:01:36;;;;;;;2.22;0.98;;;22.20;54.30;;;;;;4865103;29;20232;-75
2023/05/07 10:04:08;;;;;;;0.55;0.45;;;22.30;54.70;;;;;;4876385;29;20283;-76
2023/05/07 10:06:37;;;;;;;0.40;0.40;;;22.30;54.60;;;;;;4872991;29;20205;-76
2023/05/07 10:09:06;;;;;;;0.73;0.57;;;22.30;55.00;;;;;;4873903;29;20197;-77
2023/05/07 10:11:35;;;;;;;2.13;0.80;;;22.40;55.70;;;;;;4875599;29;20215;-77
2023/05/07 10:14:05;;;;;;;0.57;0.57;;;22.50;54.90;;;;;;4875676;29;20201;-76
2023/05/07 10:16:36;;;;;;;1.20;0.57;;;22.50;55.20;;;;;;4874458;29;20561;-76
2023/05/07 10:19:07;;;;;;;0.80;0.60;;;22.50;54.50;;;;;;4873622;29;20217;-75
2023/05/07 10:21:38;;;;;;;0.50;0.43;;;22.60;54.40;;;;;;4877869;29;20287;-76
2023/05/07 10:24:13;;;;;;;2.50;0.77;;;22.60;54.80;;;;;;4872270;29;20233;-78
2023/05/07 10:26:44;;;;;;;0.52;0.40;;;22.60;54.60;;;;;;4875513;29;20192;-76
2023/05/07 10:29:17;;;;;;;0.88;0.35;;;22.60;54.30;;;;;;4869797;29;20224;-76
2023/05/07 10:32:02;;;;;;;0.50;0.50;;;22.70;54.70;;;;;;4870733;29;20198;-75
2023/05/07 10:34:37;;;;;;;0.60;0.60;;;22.70;54.30;;;;;;4868570;29;20224;-75
2023/05/07 10:37:06;;;;;;;1.58;0.68;;;22.70;54.10;;;;;;4870236;29;20192;-75
2023/05/07 10:39:35;;;;;;;1.23;0.55;;;22.80;54.60;;;;;;4867561;29;20245;-78
2023/05/07 10:42:10;;;;;;;0.50;0.50;;;22.80;54.30;;;;;;4870836;29;20197;-74
2023/05/07 10:44:39;;;;;;;3.83;1.45;;;22.80;54.70;;;;;;4867879;29;20201;-77
2023/05/07 10:47:09;;;;;;;1.05;0.60;;;22.90;55.10;;;;;;4871653;29;20255;-77
2023/05/07 10:50:18;;;;;;;0.73;0.57;;;23.00;54.80;;;;;;4869785;29;20201;-76
2023/05/07 10:52:46;;;;;;;1.38;0.85;;;23.00;54.00;;;;;;4875664;29;20213;-76
2023/05/07 10:55:24;;;;;;;0.50;0.50;;;23.00;53.70;;;;;;4872037;29;20197;-76
2023/05/07 10:57:53;;;;;;;1.88;1.27;;;23.10;54.20;;;;;;4875023;29;20196;-76
2023/05/07 11:00:44;;;;;;;2.63;0.38;;;23.10;54.40;;;;;;4871929;29;20682;-75
2023/05/07 11:03:12;;;;;;;0.80;0.80;;;23.10;54.20;;;;;;4872292;29;20222;-76
2023/05/07 11:05:43;;;;;;;0.60;0.60;;;23.20;54.20;;;;;;4865726;29;20873;-74
2023/05/07 11:08:11;;;;;;;1.33;0.95;;;23.30;54.50;;;;;;4873619;29;20231;-75
2023/05/07 11:10:50;;;;;;;2.00;0.50;;;23.30;54.20;;;;;;4864788;29;20668;-75
2023/05/07 11:13:19;;;;;;;2.35;0.93;;;23.30;55.20;;;;;;4866840;29;20240;-76
2023/05/07 11:15:49;;;;;;;0.82;0.52;;;23.40;55.50;;;;;;4867687;29;20218;-75
2023/05/07 11:18:18;;;;;;;1.33;0.70;;;23.40;55.30;;;;;;4862933;29;20651;-74
2023/05/07 11:20:59;;;;;;;1.73;0.50;;;23.40;54.40;;;;;;4868405;29;20253;-74
2023/05/07 11:24:10;;;;;;;0.95;0.70;;;23.40;54.50;;;;;;4873766;29;20213;-75
2023/05/07 11:26:46;;;;;;;0.47;0.30;;;23.60;54.40;;;;;;4873081;29;20276;-74
2023/05/07 11:29:17;;;;;;;0.75;0.70;;;23.70;54.70;;;;;;4876831;29;20208;-75
2023/05/07 11:31:52;;;;;;;1.88;0.85;;;23.60;53.20;;;;;;4873580;29;20198;-74
2023/05/07 11:34:25;;;;;;;0.30;0.30;;;23.70;54.70;;;;;;4871992;29;20200;-75
2023/05/07 11:36:56;;;;;;;2.38;0.60;;;23.80;54.70;;;;;;4875781;29;20257;-76
2023/05/07 11:39:26;;;;;;;0.50;0.50;;;23.90;54.40;;;;;;4879031;29;20713;-75
2023/05/07 11:41:54;;;;;;;1.55;0.52;;;23.90;53.60;;;;;;4875896;29;20253;-77
2023/05/07 11:44:22;;;;;;;0.30;0.30;;;23.90;53.80;;;;;;4869541;29;20637;-75
2023/05/07 11:46:51;;;;;;;0.43;0.43;;;24.00;54.40;;;;;;4867553;29;20583;-74
2023/05/07 11:49:19;;;;;;;1.45;0.75;;;24.00;53.60;;;;;;4863185;29;20551;-73
2023/05/07 11:51:48;;;;;;;1.45;0.60;;;24.00;53.40;;;;;;4867391;29;20284;-73
2023/05/07 11:54:21;;;;;;;0.57;0.50;;;24.00;53.30;;;;;;4867803;29;20276;-74
2023/05/07 11:56:50;;;;;;;0.50;0.35;;;24.00;53.20;;;;;;4870522;29;20212;-75
2023/05/07 11:59:19;;;;;;;0.63;0.52;;;24.10;53.90;;;;;;4873445;29;20216;-74
2023/05/07 12:01:48;;;;;;;0.50;0.50;;;24.10;54.40;;;;;;4868891;29;20276;-74
2023/05/07 12:04:21;;;;;;;1.02;0.77;;;24.30;54.70;;;;;;4872977;29;20197;-74
2023/05/07 12:06:50;;;;;;;1.17;0.52;;;24.30;54.80;;;;;;4873192;29;20624;-73
2023/05/07 12:09:20;;;;;;;0.40;0.40;;;24.50;54.90;;;;;;4872618;29;20193;-75
2023/05/07 12:11:49;;;;;;;0.35;0.35;;;24.60;53.90;;;;;;4871423;29;20265;-75
2023/05/07 12:14:17;;;;;;;0.85;0.57;;;24.60;52.90;;;;;;4878298;29;20204;-74
2023/05/07 12:16:46;;;;;;;0.50;0.30;;;24.70;53.10;;;;;;4871989;29;20263;-73
2023/05/07 12:19:15;;;;;;;0.70;0.57;;;24.60;51.90;;;;;;4879270;29;20229;-74
2023/05/07 12:21:43;;;;;;;0.85;0.43;;;24.60;52.60;;;;;;4873073;29;20284;-74
2023/05/07 12:24:15;;;;;;;0.70;0.45;;;24.80;52.10;;;;;;4873977;29;20213;-73
2023/05/07 12:26:46;;;;;;;0.30;0.30;;;24.80;52.70;;;;;;4873841;29;20255;-73
2023/05/07 12:29:15;;;;;;;0.77;0.52;;;24.80;52.30;;;;;;4876262;29;20643;-75
2023/05/07 12:31:43;;;;;;;0.55;0.40;;;24.80;52.80;;;;;;4875584;29;20216;-73
2023/05/07 12:34:12;;;;;;;0.47;0.47;;;24.70;53.10;;;;;;4879593;29;20647;-75
2023/05/07 12:36:41;;;;;;;0.60;0.40;;;24.60;52.60;;;;;;4874086;29;20662;-73
2023/05/07 12:39:10;;;;;;;1.45;0.55;;;24.70;52.60;;;;;;4874705;29;20289;-74
2023/05/07 12:41:55;;;;;;;0.30;0.30;;;24.70;52.70;;;;;;4869150;29;20355;-75
2023/05/07 12:44:24;;;;;;;2.50;1.10;;;24.70;52.70;;;;;;4866843;29;20513;-75
2023/05/07 12:46:55;;;;;;;0.38;0.38;;;24.90;52.70;;;;;;4872606;29;20216;-73
2023/05/07 12:49:26;;;;;;;0.47;0.47;;;24.90;52.50;;;;;;4860618;29;20571;-73
2023/05/07 12:51:55;;;;;;;1.05;0.75;;;24.80;52.10;;;;;;4863357;29;20242;-74
2023/05/07 12:54:31;;;;;;;0.20;0.20;;;24.90;52.60;;;;;;4860647;29;20205;-74
2023/05/07 12:57:09;;;;;;;1.00;0.60;;;24.90;53.20;;;;;;4868249;29;20204;-76
2023/05/07 12:59:39;;;;;;;1.38;0.80;;;24.90;53.10;;;;;;4868108;29;20201;-74